createdAt,value
2022-11-08T00:05:21.906Z,99816.78
2022-11-08T00:10:44.365Z,99820.23
2022-11-08T00:15:47.779Z,99821.54
2022-11-08T00:20:51.724Z,99825.70
2022-11-08T00:25:55.528Z,99820.92
2022-11-08T00:30:58.939Z,99823.73
2022-11-08T00:36:03.994Z,99822.59
2022-11-08T00:41:07.308Z,99826.55
2022-11-08T00:46:10.616Z,99836.12
2022-11-08T00:51:14.025Z,99838.06
2022-11-08T00:56:17.440Z,99846.66
2022-11-08T01:01:22.054Z,99837.39
2022-11-08T01:06:26.417Z,99830.40
2022-11-08T01:11:29.829Z,99831.02
2022-11-08T01:16:34.274Z,99830.77
2022-11-08T01:21:37.373Z,99829.93
2022-11-08T01:26:40.785Z,99828.84
2022-11-08T01:31:44.199Z,99829.95
2022-11-08T01:36:47.511Z,99820.66
2022-11-08T01:41:50.923Z,99819.68
2022-11-08T01:46:54.338Z,99818.56
2022-11-08T01:52:15.778Z,99821.56
2022-11-08T01:57:26.762Z,99806.05
2022-11-08T02:02:30.268Z,99800.73
2022-11-08T02:07:34.472Z,99802.71
2022-11-08T02:12:37.922Z,99792.56
2022-11-08T02:17:41.344Z,99790.86
2022-11-08T02:23:18.645Z,99796.59
2022-11-08T02:28:22.159Z,99801.98
2022-11-08T02:33:25.369Z,99790.95
2022-11-08T02:38:29.703Z,99792.31
2022-11-08T02:43:32.919Z,99793.17
2022-11-08T02:48:36.533Z,99794.34
2022-11-08T02:53:39.848Z,99794.24
2022-11-08T02:58:43.353Z,99791.48
2022-11-08T03:03:46.668Z,99785.73
2022-11-08T03:08:50.078Z,99789.73
2022-11-08T03:13:53.594Z,99795.05
2022-11-08T03:18:57.111Z,99794.73
2022-11-08T03:24:00.524Z,99804.59
2022-11-08T03:29:03.935Z,99803.92
2022-11-08T03:34:07.183Z,99797.74
2022-11-08T03:39:11.890Z,99805.25
2022-11-08T03:44:15.201Z,99816.09
2022-11-08T03:49:18.617Z,99819.16
2022-11-08T03:54:22.025Z,99821.17
2022-11-08T03:59:25.440Z,99815.33
2022-11-08T04:04:28.853Z,99822.30
2022-11-08T04:09:32.269Z,99815.83
2022-11-08T04:14:54.622Z,99812.27
2022-11-08T04:20:16.981Z,99808.53
2022-11-08T04:25:20.290Z,99809.35
2022-11-08T04:30:23.703Z,99813.13
2022-11-08T04:35:27.116Z,99810.60
2022-11-08T04:40:31.384Z,99809.17
2022-11-08T04:45:34.559Z,99811.20
2022-11-08T04:50:38.074Z,99812.14
2022-11-08T04:55:41.384Z,99816.17
2022-11-08T05:00:45.005Z,99819.10
2022-11-08T05:05:48.314Z,99827.86
2022-11-08T05:10:52.034Z,99826.47
2022-11-08T05:15:55.346Z,99825.78
2022-11-08T05:21:19.237Z,99824.09
2022-11-08T05:26:23.017Z,99827.08
2022-11-08T05:31:26.269Z,99828.87
2022-11-08T05:36:29.686Z,99828.00
2022-11-08T05:41:33.095Z,99836.06
2022-11-08T05:46:36.546Z,99832.65
2022-11-08T05:51:39.925Z,99835.23
2022-11-08T05:56:43.438Z,99843.15
2022-11-08T06:01:55.817Z,99848.34
2022-11-08T06:06:59.172Z,99850.74
2022-11-08T06:12:02.688Z,99852.88
2022-11-08T06:17:06.412Z,99861.04
2022-11-08T06:22:09.821Z,99866.60
2022-11-08T06:27:14.878Z,99874.61
2022-11-08T06:32:18.392Z,99875.89
2022-11-08T06:37:21.702Z,99873.68
2022-11-08T06:42:26.132Z,99874.48
2022-11-08T06:47:29.247Z,99870.80
2022-11-08T06:52:32.860Z,99871.90
2022-11-08T06:57:36.375Z,99870.06
2022-11-08T07:02:40.035Z,99870.86
2022-11-08T07:07:43.713Z,99866.67
2022-11-08T07:12:47.845Z,99870.13
2022-11-08T07:17:51.195Z,99879.25
2022-11-08T07:22:56.220Z,99883.00
2022-11-08T07:28:02.954Z,99892.37
2022-11-08T07:33:06.616Z,99886.56
2022-11-08T07:38:10.032Z,99881.88
2022-11-08T07:43:13.853Z,99876.90
2022-11-08T07:48:17.062Z,99875.73
2022-11-08T07:53:21.387Z,99874.84
2022-11-08T07:58:24.912Z,99878.33
2022-11-08T08:03:28.608Z,99877.38
2022-11-08T08:08:32.047Z,99880.15
2022-11-08T08:13:35.662Z,99887.39
2022-11-08T08:18:38.973Z,99881.42
2022-11-08T08:23:42.491Z,99883.11
2022-11-08T08:28:45.801Z,99876.73
2022-11-08T08:33:49.212Z,99885.42
2022-11-08T08:38:52.524Z,99883.84
2022-11-08T08:43:56.246Z,99880.13
2022-11-08T08:48:59.555Z,99880.13
2022-11-08T08:54:03.173Z,99881.55
2022-11-08T09:04:29.969Z,99885.46
2022-11-08T09:09:34.509Z,99886.00
2022-11-08T09:14:37.920Z,99888.13
2022-11-08T09:19:41.335Z,99889.23
2022-11-08T09:24:44.751Z,99893.61
2022-11-08T09:29:48.058Z,99896.17
2022-11-08T09:34:52.380Z,99897.15
2022-11-08T09:39:55.808Z,99896.14
2022-11-08T09:45:07.618Z,99891.35
2022-11-08T09:50:13.691Z,99890.70
2022-11-08T09:55:32.163Z,99889.29
2022-11-08T10:00:39.305Z,99886.95
2022-11-08T10:05:50.656Z,99890.17
2022-11-08T10:11:21.923Z,99889.78
2022-11-08T10:16:40.184Z,99887.86
2022-11-08T10:22:05.732Z,99882.11
2022-11-08T10:27:31.044Z,99884.44
2022-11-08T10:32:36.130Z,99882.00
2022-11-08T10:37:42.651Z,99882.48
2022-11-08T10:42:51.728Z,99878.27
2022-11-08T10:47:55.549Z,99869.96
2022-11-08T10:53:01.730Z,99866.69
2022-11-08T10:58:26.542Z,99865.63
2022-11-08T11:03:30.776Z,99862.34
2022-11-08T11:08:34.294Z,99855.67
2022-11-08T11:13:37.503Z,99856.09
2022-11-08T11:18:52.907Z,99856.05
2022-11-08T11:24:08.176Z,99852.35
2022-11-08T11:29:22.558Z,99854.08
2022-11-08T11:34:40.823Z,99858.56
2022-11-08T11:39:51.294Z,99849.27
2022-11-08T11:45:03.514Z,99853.52
2022-11-08T11:50:19.727Z,99844.02
2022-11-08T11:55:37.476Z,99849.26
2022-11-08T12:00:51.748Z,99848.31
2022-11-08T12:06:00.789Z,99839.98
2022-11-08T12:11:40.143Z,99838.27
2022-11-08T12:17:14.487Z,99832.16
2022-11-08T12:22:35.819Z,99830.40
2022-11-08T12:27:52.786Z,99832.62
2022-11-08T12:33:21.047Z,99827.33
2022-11-08T12:38:38.484Z,99825.52
2022-11-08T12:44:15.895Z,99828.69
2022-11-08T12:49:34.463Z,99826.98
2022-11-08T12:54:53.952Z,99831.81
2022-11-08T13:00:29.729Z,99833.79
2022-11-08T13:05:38.157Z,99841.56
2022-11-08T13:10:43.618Z,99840.14
2022-11-08T13:16:16.933Z,99841.98
2022-11-08T13:21:25.992Z,99849.77
2022-11-08T13:26:32.034Z,99851.56
2022-11-08T13:31:38.129Z,99854.64
2022-11-08T13:36:53.011Z,99846.52
2022-11-08T13:42:25.200Z,99842.59
2022-11-08T13:47:34.855Z,99846.52
2022-11-08T13:53:03.973Z,99838.38
2022-11-08T13:58:35.954Z,99838.47
2022-11-08T14:03:42.238Z,99833.55
2022-11-08T14:09:42.994Z,99836.29
2022-11-08T14:14:55.322Z,99836.94
2022-11-08T14:20:17.931Z,99830.05
2022-11-08T14:25:31.940Z,99829.65
2022-11-08T14:30:35.257Z,99832.14
2022-11-08T14:35:40.403Z,99834.86
2022-11-08T14:41:01.235Z,99838.61
2022-11-08T14:46:14.674Z,99841.17
2022-11-08T14:51:18.805Z,99846.19
2022-11-08T14:56:25.390Z,99841.20
2022-11-08T15:01:30.151Z,99838.52
2022-11-08T15:06:41.199Z,99836.16
2022-11-08T15:11:52.903Z,99831.26
2022-11-08T15:17:02.498Z,99827.55
2022-11-08T15:22:33.659Z,99824.30
2022-11-08T15:27:36.969Z,99827.01
2022-11-08T15:32:40.692Z,99826.05
2022-11-08T15:37:44.101Z,99826.87
2022-11-08T15:42:51.002Z,99822.95
2022-11-08T15:48:01.857Z,99819.64
2022-11-08T15:53:06.998Z,99816.23
2022-11-08T15:58:28.384Z,99815.76
2022-11-08T16:03:33.937Z,99826.08
2022-11-08T16:08:37.151Z,99822.64
2022-11-08T16:13:40.766Z,99830.80
2022-11-08T16:18:44.892Z,99833.85
2022-11-08T16:23:48.208Z,99834.41
2022-11-08T16:28:51.618Z,99837.77
2022-11-08T16:33:56.363Z,99843.35
2022-11-08T16:39:02.131Z,99847.24
2022-11-08T16:44:05.852Z,99848.29
2022-11-08T16:49:20.432Z,99846.34
2022-11-08T16:54:28.616Z,99843.06
2022-11-08T16:59:32.268Z,99844.45
2022-11-08T17:04:35.606Z,99846.18
2022-11-08T17:09:38.997Z,99847.02
2022-11-08T17:14:42.509Z,99845.04
2022-11-08T17:19:45.822Z,99846.48
2022-11-08T17:24:49.234Z,99847.29
2022-11-08T17:29:52.647Z,99847.34
2022-11-08T17:34:56.165Z,99841.61
2022-11-08T17:39:59.881Z,99838.38
2022-11-08T17:45:07.993Z,99830.88
2022-11-08T17:50:11.949Z,99833.48
2022-11-08T17:55:15.445Z,99830.16
2022-11-08T18:00:19.279Z,99830.67
2022-11-08T18:05:22.999Z,99836.34
2022-11-08T18:10:26.914Z,99834.17
2022-11-08T18:15:30.224Z,99838.67
2022-11-08T18:20:33.640Z,99840.55
2022-11-08T18:25:37.153Z,99834.53
2022-11-08T18:30:42.907Z,99833.78
2022-11-08T18:35:48.689Z,99832.12
2022-11-08T18:40:52.515Z,99831.55
2022-11-08T18:45:56.232Z,99826.77
2022-11-08T18:50:59.647Z,99822.77
2022-11-08T18:56:06.839Z,99820.01
2022-11-08T19:01:10.401Z,99821.88
2022-11-08T19:06:14.289Z,99825.06
2022-11-08T19:11:21.593Z,99823.73
2022-11-08T19:16:25.317Z,99823.65
2022-11-08T19:21:29.137Z,99821.96
2022-11-08T19:26:32.345Z,99825.40
2022-11-08T19:31:39.342Z,99827.00
2022-11-08T19:36:45.725Z,99826.94
2022-11-08T19:41:49.241Z,99827.17
2022-11-08T19:46:52.654Z,99833.43
2022-11-08T19:51:56.680Z,99834.48
2022-11-08T19:57:04.578Z,99833.32
2022-11-08T20:02:09.334Z,99830.66
2022-11-08T20:07:12.711Z,99830.10
2022-11-08T20:12:16.172Z,99824.85
2022-11-08T20:17:19.584Z,99826.65
2022-11-08T20:22:23.507Z,99822.84
2022-11-08T20:27:26.926Z,99821.85
2022-11-08T20:32:30.447Z,99823.73
2022-11-08T20:37:33.855Z,99817.59
2022-11-08T20:42:37.776Z,99819.50
2022-11-08T20:47:41.189Z,99816.82
2022-11-08T20:52:45.216Z,99821.35
2022-11-08T20:57:50.062Z,99815.66
2022-11-08T21:02:53.475Z,99817.08
2022-11-08T21:08:56.507Z,99818.21
2022-11-08T21:13:20.270Z,99815.70
2022-11-08T21:18:24.811Z,99818.92
2022-11-08T21:23:28.632Z,99813.51
2022-11-08T21:28:32.358Z,99810.15
2022-11-08T21:33:36.585Z,99809.44
2022-11-08T21:38:40.407Z,99807.64
2022-11-08T21:43:45.460Z,99805.45
2022-11-08T21:48:56.859Z,99801.80
2022-11-08T21:54:00.685Z,99804.20
2022-11-08T21:59:04.103Z,99801.87
2022-11-08T22:04:07.615Z,99805.29
2022-11-08T22:09:11.125Z,99808.00
2022-11-08T22:14:14.754Z,99804.39
2022-11-08T22:19:18.160Z,99797.92
2022-11-08T22:24:21.696Z,99790.98
2022-11-08T22:29:25.086Z,99783.25
2022-11-08T22:34:28.601Z,99779.73
2022-11-08T22:39:32.017Z,99776.00
2022-11-08T22:44:35.428Z,99767.02
2022-11-08T22:49:43.960Z,99764.44
2022-11-08T22:54:48.602Z,99761.78
2022-11-08T22:59:52.123Z,99758.48
2022-11-08T23:04:55.639Z,99759.40
2022-11-08T23:09:59.258Z,99757.52
2022-11-08T23:15:21.307Z,99755.11
2022-11-08T23:20:43.356Z,99751.27
2022-11-08T23:25:46.977Z,99745.41
2022-11-08T23:31:09.128Z,99744.48
2022-11-08T23:36:12.858Z,99744.44
2022-11-08T23:41:35.206Z,99741.30
2022-11-08T23:46:39.029Z,99740.15
2022-11-08T23:51:42.648Z,99737.57
2022-11-08T23:56:46.575Z,99734.17
